Time;durP1;ratioP1;P1;durP2;ratioP2;P2;SDS_P1;SDS_P2;PMS_P1;PMS_P2;Temp;Humidity;BMP_temperature;BMP_pressure;BME280_temperature;BME280_humidity;BME280_pressure;Samples;Min_cycle;Max_cycle;Signal;HPM_P1;HPM_P2
2022/12/27 00:02:09;;;;;;;32.47;17.65;;;;;;;9.44;59.70;100106.97;4317189;33;20481;-89
2022/12/27 00:04:38;;;;;;;33.40;17.50;;;;;;;9.53;59.71;100099.84;4285557;33;20714;-89
2022/12/27 00:07:03;;;;;;;29.10;16.60;;;;;;;9.58;59.71;100106.69;4317057;33;20083;-90
2022/12/27 00:09:31;;;;;;;36.75;17.77;;;;;;;9.51;59.70;100104.22;4318096;33;20183;-90
2022/12/27 00:11:56;;;;;;;32.97;16.42;;;;;;;9.39;59.70;100112.25;4322927;33;20126;-90
2022/12/27 00:14:22;;;;;;;28.45;15.32;;;;;;;9.57;59.70;100094.56;4314365;33;20112;-89
2022/12/27 00:16:47;;;;;;;35.45;16.12;;;;;;;9.55;59.70;100089.41;4298231;33;20163;-89
2022/12/27 00:19:15;;;;;;;25.45;14.10;;;;;;;9.79;59.73;100073.25;4334493;33;20174;-88
2022/12/27 00:21:44;;;;;;;28.20;14.32;;;;;;;9.69;59.71;100076.94;4298754;33;20103;-88
2022/12/27 00:24:09;;;;;;;25.67;14.15;;;;;;;9.74;59.72;100082.91;4298262;33;20110;-89
2022/12/27 00:26:35;;;;;;;23.73;13.43;;;;;;;9.76;59.72;100086.31;4334745;33;20100;-89
2022/12/27 00:29:01;;;;;;;24.80;14.15;;;;;;;9.83;59.72;100089.62;4336064;33;20103;-88
2022/12/27 00:31:30;;;;;;;25.55;13.25;;;;;;;9.93;59.73;100095.44;4316904;33;20472;-89
2022/12/27 00:33:56;;;;;;;24.20;12.55;;;;;;;9.93;59.73;100088.50;4286047;33;20095;-89
2022/12/27 00:36:24;;;;;;;20.40;11.15;;;;;;;10.15;59.74;100089.69;4310548;33;20111;-88
2022/12/27 00:38:49;;;;;;;20.92;10.48;;;;;;;10.22;59.74;100094.78;4309491;33;20177;-88
2022/12/27 00:41:14;;;;;;;20.20;10.00;;;;;;;10.34;59.75;100086.66;4334388;33;20171;-88
2022/12/27 00:43:40;;;;;;;15.63;8.32;;;;;;;10.26;59.75;100079.06;4325056;33;20156;-87
2022/12/27 00:46:05;;;;;;;14.87;7.15;;;;;;;10.48;59.76;100068.09;4310102;33;20119;-88
2022/12/27 00:48:31;;;;;;;12.35;6.32;;;;;;;10.56;59.76;100060.94;4324543;33;20143;-88
2022/12/27 00:51:05;;;;;;;10.73;5.60;;;;;;;10.60;59.76;100052.12;4297930;33;20196;-88
2022/12/27 00:53:31;;;;;;;10.95;6.22;;;;;;;10.67;59.76;100054.56;4322176;33;20100;-90
2022/12/27 00:55:56;;;;;;;11.80;5.87;;;;;;;10.77;59.78;100056.00;4322776;33;20100;-90
2022/12/27 00:58:21;;;;;;;11.38;5.37;;;;;;;10.77;59.78;100053.41;4310626;33;20158;-89
2022/12/27 01:00:47;;;;;;;10.60;4.87;;;;;;;11.01;59.79;100054.44;4310276;33;20137;-89
2022/12/27 01:03:13;;;;;;;8.38;4.62;;;;;;;11.09;59.80;100049.00;4307867;33;20126;-90
2022/12/27 01:05:38;;;;;;;9.07;4.43;;;;;;;11.13;59.79;100050.66;4298569;33;20457;-90
2022/12/27 01:08:04;;;;;;;6.30;3.58;;;;;;;11.10;59.79;100032.47;4308456;33;20123;-90
2022/12/27 01:10:29;;;;;;;5.70;3.55;;;;;;;11.18;59.80;100030.50;4320269;33;20155;-91
2022/12/27 01:12:55;;;;;;;9.07;4.40;;;;;;;11.16;59.80;100021.03;4322728;33;20469;-91
2022/12/27 01:15:20;;;;;;;8.57;4.25;;;;;;;11.14;59.79;100026.28;4320559;33;20108;-92
2022/12/27 01:17:46;;;;;;;8.77;3.78;;;;;;;11.32;59.80;100028.31;4310422;33;20139;-91
2022/12/27 01:20:11;;;;;;;6.68;3.53;;;;;;;11.39;59.81;100031.62;4320149;33;20151;-90
2022/12/27 01:22:37;;;;;;;7.62;3.62;;;;;;;11.40;59.81;100028.13;4310627;33;20103;-91
2022/12/27 01:25:02;;;;;;;6.97;3.22;;;;;;;11.41;59.81;100034.19;4298241;33;20131;-91
2022/12/27 01:27:28;;;;;;;5.47;2.37;;;;;;;11.36;59.80;100032.56;4310280;33;20099;-91
2022/12/27 01:29:53;;;;;;;5.82;2.47;;;;;;;11.46;59.81;100030.53;4322756;33;20150;-91
2022/12/27 01:32:19;;;;;;;5.60;2.78;;;;;;;11.53;59.82;100037.25;4298038;33;20135;-90
2022/12/27 01:34:44;;;;;;;5.72;3.20;;;;;;;11.58;59.82;100044.91;4298423;33;20723;-90
2022/12/27 01:37:09;;;;;;;8.48;2.75;;;;;;;11.54;59.82;100048.53;4310215;33;20532;-90
2022/12/27 01:39:35;;;;;;;7.40;3.00;;;;;;;11.52;59.81;100039.91;4334681;33;20112;-89
2022/12/27 01:44:49;;;;;;;4.72;2.83;;;;;;;11.62;59.82;100059.59;4324578;33;20110;-89
2022/12/27 01:47:30;;;;;;;3.67;2.00;;;;;;;11.58;59.81;100068.38;4322022;33;20457;-88
2022/12/27 01:50:04;;;;;;;4.53;2.55;;;;;;;11.56;59.81;100070.19;4334035;33;20162;-88
2022/12/27 01:52:40;;;;;;;5.35;3.08;;;;;;;11.59;59.81;100068.34;4320862;33;20088;-88
2022/12/27 01:55:17;;;;;;;5.85;2.72;;;;;;;11.38;59.81;100069.88;4310009;33;20122;-88
2022/12/27 01:57:42;;;;;;;6.22;3.40;;;;;;;11.47;59.81;100076.53;4333311;33;20104;-88
2022/12/27 02:00:08;;;;;;;6.55;3.20;;;;;;;11.73;59.83;100078.34;4309207;33;20146;-88
2022/12/27 02:02:34;;;;;;;6.82;3.37;;;;;;;11.63;59.82;100080.41;4308871;33;20445;-88
2022/12/27 02:04:59;;;;;;;6.37;2.95;;;;;;;11.60;59.83;100079.62;4297512;33;20172;-89
2022/12/27 02:07:25;;;;;;;7.50;3.47;;;;;;;11.42;59.80;100086.25;4321971;33;20189;-90
2022/12/27 02:09:54;;;;;;;6.85;3.47;;;;;;;11.61;59.82;100078.72;4297998;33;20175;-89
2022/12/27 02:12:20;;;;;;;6.72;3.40;;;;;;;11.64;59.82;100076.88;4298220;33;20092;-89
2022/12/27 02:14:46;;;;;;;8.43;4.03;;;;;;;11.77;59.83;100086.91;4297932;33;20087;-90
2022/12/27 02:17:27;;;;;;;5.93;3.22;;;;;;;11.86;59.83;100090.12;4313220;33;20457;-89
2022/12/27 02:20:21;;;;;;;7.20;3.75;;;;;;;11.67;59.83;100095.03;4312407;33;20115;-89
2022/12/27 02:26:11;;;;;;;7.65;3.97;;;;;;;11.96;59.84;100086.31;4334824;33;20075;-88
2022/12/27 02:29:11;;;;;;;10.50;4.28;;;;;;;11.97;59.83;100090.63;4321817;33;20167;-88
2022/12/27 02:31:42;;;;;;;6.90;3.85;;;;;;;11.90;59.84;100083.91;4321255;33;20111;-89
2022/12/27 02:34:13;;;;;;;8.23;3.87;;;;;;;11.99;59.84;100078.38;4323121;33;20087;-88
2022/12/27 02:36:38;;;;;;;8.00;3.80;;;;;;;11.95;59.83;100066.34;4321619;33;20457;-90
2022/12/27 02:39:04;;;;;;;7.28;3.65;;;;;;;12.10;59.85;100069.38;4297391;33;20171;-90
2022/12/27 02:53:06;;;;;;;8.50;4.97;;;;;;;11.91;59.84;100069.12;4304482;33;20127;-90
2022/12/27 02:59:08;;;;;;;9.98;4.70;;;;;;;11.76;59.83;100080.84;4334847;33;20118;-89
2022/12/27 03:05:20;;;;;;;8.30;3.35;;;;;;;11.83;59.83;100079.81;4323992;33;20895;-89
2022/12/27 03:07:58;;;;;;;6.22;3.20;;;;;;;12.01;59.84;100090.53;4328610;33;20468;-89
2022/12/27 03:16:30;;;;;;;4.15;1.80;;;;;;;11.85;59.83;100075.38;4313732;33;20162;-89
2022/12/27 03:18:55;;;;;;;4.97;1.95;;;;;;;11.89;59.83;100082.22;4311215;33;20092;-88
2022/12/27 03:26:57;;;;;;;3.80;1.85;;;;;;;11.89;59.83;100081.34;4316458;33;20122;-90
2022/12/27 03:34:57;;;;;;;4.68;2.12;;;;;;;11.68;59.83;100099.34;4327824;33;20126;-89
2022/12/27 03:43:35;;;;;;;10.00;4.85;;;;;;;11.70;59.82;100112.34;4325486;33;20142;-89
2022/12/27 03:49:25;;;;;;;6.07;3.08;;;;;;;11.44;59.81;100126.16;4334918;33;20150;-89
2022/12/27 03:51:56;;;;;;;7.22;3.50;;;;;;;11.29;59.80;100137.88;4321957;33;20092;-89
2022/12/27 03:54:30;;;;;;;9.98;4.45;;;;;;;11.35;59.81;100134.22;4322761;33;20142;-89
2022/12/27 03:57:03;;;;;;;8.10;3.40;;;;;;;11.24;59.80;100134.56;4298746;33;20099;-89
2022/12/27 03:59:29;;;;;;;5.78;3.12;;;;;;;11.10;59.79;100141.87;4299242;33;20138;-88
2022/12/27 04:01:54;;;;;;;5.90;2.75;;;;;;;10.82;59.78;100141.78;4298368;33;20144;-89
2022/12/27 04:04:20;;;;;;;3.70;2.20;;;;;;;10.92;59.78;100140.66;4313331;33;20218;-89
2022/12/27 04:06:45;;;;;;;4.15;2.37;;;;;;;10.74;59.77;100142.00;4297766;33;20132;-89
2022/12/27 04:36:31;;;;;;;8.27;4.05;;;;;;;10.20;59.74;100165.03;4314517;33;20110;-89
2022/12/27 04:38:56;;;;;;;8.73;4.55;;;;;;;10.28;59.74;100173.53;4310620;33;20099;-89
2022/12/27 04:55:23;;;;;;;7.93;4.78;;;;;;;9.67;59.71;100207.81;4313533;33;20143;-88
2022/12/27 04:57:50;;;;;;;8.00;4.45;;;;;;;9.59;59.71;100218.38;4307584;33;20480;-87
2022/12/27 05:03:00;;;;;;;5.72;3.33;;;;;;;9.69;59.71;100232.91;4323936;33;20117;-87
2022/12/27 05:05:26;;;;;;;7.22;3.87;;;;;;;9.65;59.72;100246.84;4322170;33;20092;-89
2022/12/27 05:16:03;;;;;;;6.82;3.80;;;;;;;9.90;59.73;100236.78;4335531;33;20099;-88
2022/12/27 05:18:29;;;;;;;8.68;4.20;;;;;;;9.95;59.73;100236.72;4321869;33;20068;-88
2022/12/27 05:20:54;;;;;;;11.55;4.70;;;;;;;10.11;59.74;100240.69;4297473;33;20148;-87
2022/12/27 05:26:04;;;;;;;7.65;4.35;;;;;;;9.98;59.73;100249.66;4323500;33;20142;-88
2022/12/27 05:28:29;;;;;;;6.65;4.37;;;;;;;10.01;59.72;100247.84;4296208;33;20426;-86
2022/12/27 05:30:59;;;;;;;10.27;4.37;;;;;;;10.03;59.74;100256.47;4309852;33;20134;-89
2022/12/27 05:33:24;;;;;;;6.35;3.70;;;;;;;10.10;59.74;100254.56;4322312;33;20104;-90
2022/12/27 05:35:50;;;;;;;7.28;4.05;;;;;;;10.05;59.74;100261.63;4297930;33;20103;-89
2022/12/27 05:38:15;;;;;;;6.93;3.83;;;;;;;10.10;59.74;100276.25;4322289;33;20131;-90
2022/12/27 05:40:40;;;;;;;7.07;4.53;;;;;;;10.14;59.74;100272.66;4309630;33;20833;-89
2022/12/27 05:43:06;;;;;;;9.02;3.87;;;;;;;10.11;59.74;100272.75;4297738;33;20191;-89
2022/12/27 05:45:31;;;;;;;5.75;3.75;;;;;;;10.16;59.75;100283.91;4322310;33;20171;-89
2022/12/27 05:47:57;;;;;;;6.82;3.97;;;;;;;10.27;59.75;100281.13;4303465;33;20092;-88
2022/12/27 05:50:23;;;;;;;7.57;3.47;;;;;;;10.25;59.75;100295.03;4322064;33;20147;-89
2022/12/27 05:52:48;;;;;;;7.12;4.35;;;;;;;10.22;59.74;100289.91;4321565;33;20099;-90
2022/12/27 05:55:14;;;;;;;9.65;3.87;;;;;;;10.22;59.74;100293.38;4311545;33;20114;-89
2022/12/27 05:57:39;;;;;;;6.72;3.67;;;;;;;10.16;59.75;100302.09;4303237;33;20091;-89
2022/12/27 06:00:05;;;;;;;6.93;3.45;;;;;;;10.14;59.74;100319.50;4333989;33;20107;-89
2022/12/27 06:02:31;;;;;;;7.50;3.78;;;;;;;10.13;59.74;100328.19;4321787;33;20111;-89
2022/12/27 06:04:56;;;;;;;9.07;3.50;;;;;;;10.21;59.74;100309.03;4321835;33;20131;-89
2022/12/27 06:07:21;;;;;;;7.95;4.00;;;;;;;10.29;59.75;100320.09;4316405;33;20100;-89
2022/12/27 06:09:47;;;;;;;6.07;3.37;;;;;;;10.26;59.75;100315.81;4321641;33;20132;-88
2022/12/27 06:12:12;;;;;;;5.12;3.53;;;;;;;10.22;59.74;100331.53;4297825;33;20199;-89
2022/12/27 06:14:38;;;;;;;5.95;3.22;;;;;;;10.32;59.75;100338.25;4319076;33;20155;-89
2022/12/27 06:17:03;;;;;;;5.47;3.28;;;;;;;10.29;59.75;100338.31;4309412;33;20135;-89
2022/12/27 06:19:28;;;;;;;4.65;2.78;;;;;;;10.28;59.74;100337.47;4297531;33;20166;-89
2022/12/27 06:21:54;;;;;;;4.40;2.65;;;;;;;10.37;59.75;100336.41;4318826;33;20163;-86
2022/12/27 06:24:19;;;;;;;4.25;2.60;;;;;;;10.27;59.74;100337.50;4321712;33;20128;-88
2022/12/27 06:26:45;;;;;;;5.32;2.95;;;;;;;10.25;59.75;100342.75;4320943;33;20099;-88
2022/12/27 06:29:11;;;;;;;6.12;2.90;;;;;;;10.32;59.75;100344.31;4323642;33;20112;-88
2022/12/27 06:31:36;;;;;;;5.00;2.55;;;;;;;10.44;59.76;100356.22;4321133;33;20504;-89
2022/12/27 06:34:02;;;;;;;4.70;2.83;;;;;;;10.27;59.75;100366.13;4320999;33;20234;-89
2022/12/27 06:36:29;;;;;;;3.85;2.28;;;;;;;10.29;59.75;100359.13;4306737;33;20139;-89
2022/12/27 06:38:55;;;;;;;5.90;2.67;;;;;;;10.21;59.74;100367.13;4320145;33;20466;-86
2022/12/27 06:41:20;;;;;;;5.22;2.72;;;;;;;10.37;59.75;100378.03;4305849;33;20178;-88
2022/12/27 06:43:46;;;;;;;3.70;2.35;;;;;;;10.23;59.74;100367.94;4301080;33;20100;-88
2022/12/27 06:46:16;;;;;;;4.28;2.45;;;;;;;10.14;59.74;100381.94;4322992;33;20103;-88
2022/12/27 06:48:41;;;;;;;6.05;3.00;;;;;;;10.14;59.74;100376.72;4308326;33;20104;-88
2022/12/27 06:51:08;;;;;;;4.87;2.47;;;;;;;10.11;59.74;100378.53;4313168;33;20130;-88
2022/12/27 06:53:35;;;;;;;6.15;2.40;;;;;;;10.15;59.73;100382.78;4322641;33;20104;-88
2022/12/27 06:56:15;;;;;;;4.00;2.20;;;;;;;10.22;59.74;100383.56;4322792;33;20100;-87
2022/12/27 06:58:41;;;;;;;5.85;2.30;;;;;;;10.25;59.75;100391.31;4318666;33;20131;-88
2022/12/27 07:01:10;;;;;;;4.78;2.20;;;;;;;10.19;59.75;100401.81;4304663;33;20100;-88
2022/12/27 07:03:35;;;;;;;4.50;2.50;;;;;;;10.21;59.75;100400.94;4317570;33;20888;-88
2022/12/27 07:06:02;;;;;;;3.05;1.70;;;;;;;10.28;59.75;100396.44;4314695;33;20114;-87
2022/12/27 07:08:27;;;;;;;3.87;2.03;;;;;;;10.14;59.73;100400.13;4322601;33;20116;-88
2022/12/27 07:10:57;;;;;;;2.80;1.70;;;;;;;10.12;59.74;100399.31;4321955;33;20158;-88
2022/12/27 07:13:23;;;;;;;2.95;1.62;;;;;;;10.16;59.75;100395.75;4321889;33;20078;-88
2022/12/27 07:15:48;;;;;;;2.25;1.40;;;;;;;10.08;59.73;100399.41;4322301;33;20084;-88
2022/12/27 07:18:14;;;;;;;2.55;1.70;;;;;;;10.00;59.73;100401.31;4310480;33;20163;-87
2022/12/27 07:20:39;;;;;;;2.92;1.15;;;;;;;10.11;59.74;100402.81;4310130;33;22600;-88
2022/12/27 07:23:04;;;;;;;1.67;1.10;;;;;;;10.13;59.74;100411.44;4310467;33;20112;-89
2022/12/27 07:25:31;;;;;;;2.20;1.10;;;;;;;9.91;59.72;100404.06;4311069;33;20127;-89
2022/12/27 07:27:56;;;;;;;1.52;0.68;;;;;;;10.02;59.73;100397.78;4327900;33;20128;-88
2022/12/27 07:30:22;;;;;;;2.37;0.85;;;;;;;10.04;59.73;100396.03;4313836;33;20442;-86
2022/12/27 07:32:47;;;;;;;3.15;0.90;;;;;;;9.91;59.73;100391.06;4322187;33;20091;-86
2022/12/27 07:35:13;;;;;;;1.42;0.73;;;;;;;9.90;59.73;100398.00;4327262;33;20104;-87
2022/12/27 07:37:38;;;;;;;1.35;0.73;;;;;;;9.93;59.73;100392.75;4298670;33;20119;-88
2022/12/27 07:40:04;;;;;;;1.77;0.80;;;;;;;10.08;59.73;100409.81;4332665;32;20248;-89
2022/12/27 07:42:29;;;;;;;0.93;0.57;;;;;;;10.18;59.74;100415.72;4295803;33;20095;-88
2022/12/27 07:44:55;;;;;;;1.00;0.50;;;;;;;10.22;59.74;100415.66;4303565;33;20114;-88
2022/12/27 07:47:20;;;;;;;0.50;0.40;;;;;;;10.11;59.74;100433.16;4313103;33;20126;-86
2022/12/27 07:49:46;;;;;;;2.28;0.85;;;;;;;10.07;59.73;100432.38;4295463;33;20147;-87
2022/12/27 07:52:11;;;;;;;1.35;0.70;;;;;;;10.10;59.74;100424.50;4310625;33;20164;-88
2022/12/27 07:54:36;;;;;;;1.90;0.85;;;;;;;10.18;59.74;100445.19;4298601;33;20386;-89
2022/12/27 07:57:02;;;;;;;2.55;0.60;;;;;;;10.13;59.74;100447.84;4320137;33;20148;-88
2022/12/27 07:59:27;;;;;;;1.55;1.00;;;;;;;10.27;59.75;100460.66;4310633;33;20160;-89
2022/12/27 08:02:05;;;;;;;1.10;0.80;;;;;;;10.23;59.74;100459.00;4322759;33;20135;-89
2022/12/27 08:04:31;;;;;;;1.87;0.75;;;;;;;10.40;59.76;100448.22;4311815;33;20114;-89
2022/12/27 08:07:03;;;;;;;1.55;0.52;;;;;;;10.33;59.75;100481.34;4328595;33;20107;-89
2022/12/27 08:09:30;;;;;;;0.57;0.37;;;;;;;10.20;59.74;100477.25;4302564;33;20175;-89
2022/12/27 08:11:55;;;;;;;0.35;0.30;;;;;;;10.33;59.75;100478.72;4316587;33;20106;-88
2022/12/27 08:14:21;;;;;;;2.15;0.30;;;;;;;10.43;59.76;100477.69;4306783;33;20394;-86
2022/12/27 08:16:46;;;;;;;0.73;0.40;;;;;;;10.53;59.76;100491.34;4315742;33;20160;-88
2022/12/27 08:19:11;;;;;;;0.57;0.40;;;;;;;10.52;59.76;100484.44;4316426;33;20166;-89
2022/12/27 08:21:37;;;;;;;0.62;0.35;;;;;;;10.57;59.77;100500.81;4322418;33;20129;-88
2022/12/27 08:24:03;;;;;;;0.85;0.30;;;;;;;10.53;59.76;100500.91;4322473;33;20117;-88
2022/12/27 08:26:28;;;;;;;2.22;0.50;;;;;;;10.30;59.74;100493.56;4309587;33;20119;-86
2022/12/27 08:28:53;;;;;;;1.87;0.60;;;;;;;10.40;59.76;100511.56;4298063;33;20112;-86
2022/12/27 08:31:19;;;;;;;0.60;0.40;;;;;;;10.43;59.76;100502.84;4327592;33;20170;-88
2022/12/27 08:33:44;;;;;;;0.28;0.20;;;;;;;10.52;59.76;100502.66;4302423;33;20452;-89
2022/12/27 08:36:11;;;;;;;1.77;0.50;;;;;;;10.59;59.76;100512.06;4309825;33;20135;-89
2022/12/27 08:38:36;;;;;;;0.35;0.25;;;;;;;10.72;59.77;100523.09;4312422;33;20119;-89
2022/12/27 08:41:02;;;;;;;1.55;0.30;;;;;;;10.74;59.77;100522.16;4309539;33;20167;-89
2022/12/27 08:43:30;;;;;;;0.85;0.30;;;;;;;10.75;59.77;100531.69;4321375;33;20099;-90
2022/12/27 08:46:00;;;;;;;0.90;0.20;;;;;;;10.97;59.78;100533.88;4298818;33;20175;-90
2022/12/27 08:48:53;;;;;;;0.98;0.25;;;;;;;10.81;59.78;100535.06;4334706;33;20171;-88
2022/12/27 08:52:02;;;;;;;1.02;0.30;;;;;;;10.67;59.77;100532.75;4334943;33;20126;-89
2022/12/27 08:55:27;;;;;;;;;;;;;;;;;;;;;
2022/12/27 08:58:22;;;;;;;0.30;0.13;;;;;;;10.63;59.77;100542.34;4335267;33;36744;-88
2022/12/27 09:00:48;;;;;;;0.75;0.30;;;;;;;10.63;59.77;100554.50;4314538;33;20134;-89
2022/12/27 09:03:16;;;;;;;0.30;0.30;;;;;;;10.53;59.76;100529.56;4297597;33;20095;-86
2022/12/27 09:05:42;;;;;;;0.30;0.10;;;;;;;10.34;59.75;100534.25;4322409;33;20107;-87
2022/12/27 09:08:07;;;;;;;0.25;0.10;;;;;;;10.40;59.75;100541.91;4297244;33;20115;-86
2022/12/27 09:10:33;;;;;;;0.80;0.30;;;;;;;10.24;59.75;100556.97;4321787;33;20107;-87
2022/12/27 09:12:58;;;;;;;2.90;0.20;;;;;;;10.22;59.74;100565.69;4310211;33;20096;-88
2022/12/27 09:15:24;;;;;;;0.30;0.20;;;;;;;10.20;59.74;100549.22;4321797;33;20187;-88
2022/12/27 09:17:49;;;;;;;1.35;0.22;;;;;;;10.15;59.74;100546.69;4298020;33;20146;-88
2022/12/27 09:20:14;;;;;;;1.83;0.37;;;;;;;10.13;59.74;100554.50;4305369;33;20200;-88
2022/12/27 09:22:40;;;;;;;5.07;0.40;;;;;;;10.00;59.73;100553.03;4300190;33;20107;-87
2022/12/27 09:25:06;;;;;;;0.30;0.15;;;;;;;10.04;59.74;100562.50;4299740;33;20138;-88
2022/12/27 09:27:35;;;;;;;0.93;0.30;;;;;;;9.99;59.73;100586.88;4299463;33;20137;-87
2022/12/27 09:30:02;;;;;;;1.05;0.20;;;;;;;9.87;59.73;100561.91;4297898;33;20115;-88
2022/12/27 09:32:27;;;;;;;0.80;0.40;;;;;;;9.82;59.72;100579.31;4288458;33;236212;-89
2022/12/27 09:34:53;;;;;;;0.30;0.10;;;;;;;10.00;59.73;100579.03;4311101;33;20147;-87
2022/12/27 09:37:19;;;;;;;0.88;0.28;;;;;;;9.93;59.73;100590.41;4287373;33;20129;-88
2022/12/27 09:39:44;;;;;;;0.50;0.30;;;;;;;9.84;59.73;100600.97;4297149;33;20496;-89
2022/12/27 09:42:38;;;;;;;0.70;0.20;;;;;;;9.89;59.73;100580.06;4309017;33;20456;-88
2022/12/27 09:45:13;;;;;;;0.62;0.20;;;;;;;9.92;59.73;100588.69;4308593;33;20448;-89
2022/12/27 09:47:50;;;;;;;2.87;0.47;;;;;;;9.92;59.72;100593.03;4320992;33;20216;-88
2022/12/27 09:50:31;;;;;;;0.47;0.35;;;;;;;9.90;59.73;100598.25;4323088;33;20150;-89
2022/12/27 09:53:17;;;;;;;1.37;0.40;;;;;;;9.65;59.72;100589.09;4297730;33;20803;-88
2022/12/27 09:55:45;;;;;;;0.77;0.65;;;;;;;9.70;59.71;100595.97;4308924;33;20099;-88
2022/12/27 09:58:26;;;;;;;2.00;0.30;;;;;;;9.79;59.71;100606.22;4306806;33;20137;-88
2022/12/27 10:00:51;;;;;;;0.35;0.20;;;;;;;9.78;59.72;100612.31;4333776;33;20127;-87
2022/12/27 10:03:18;;;;;;;1.52;0.40;;;;;;;9.57;59.71;100628.22;4320961;33;20095;-87
2022/12/27 10:05:44;;;;;;;0.30;0.30;;;;;;;9.36;59.70;100626.75;4304949;33;20487;-88
2022/12/27 10:08:22;;;;;;;0.85;0.30;;;;;;;9.11;59.68;100605.44;4298975;33;20190;-90
2022/12/27 10:11:34;;;;;;;1.52;0.28;;;;;;;9.13;59.69;100632.25;4332539;33;20115;-88
2022/12/27 10:14:00;;;;;;;0.30;0.22;;;;;;;9.24;59.69;100626.94;4318111;33;20126;-88
2022/12/27 10:16:47;;;;;;;1.33;0.30;;;;;;;8.96;59.67;100628.97;4324894;33;20134;-88
2022/12/27 10:19:25;;;;;;;2.72;0.50;;;;;;;9.18;59.68;100635.62;4322549;33;20107;-88
2022/12/27 10:22:16;;;;;;;2.03;0.30;;;;;;;9.14;59.69;100648.69;4334559;33;20874;-88
2022/12/27 10:24:47;;;;;;;0.75;0.20;;;;;;;8.97;59.68;100641.09;4333116;33;20095;-88
2022/12/27 10:27:41;;;;;;;0.90;0.40;;;;;;;9.08;59.68;100635.78;4311167;33;20086;-88
2022/12/27 10:30:17;;;;;;;1.08;0.50;;;;;;;9.02;59.68;100634.13;4318731;33;20159;-88
2022/12/27 10:32:43;;;;;;;2.75;0.70;;;;;;;9.10;59.68;100634.88;4332777;33;20131;-87
2022/12/27 10:35:19;;;;;;;1.55;0.28;;;;;;;9.26;59.69;100645.09;4320296;33;20111;-88
2022/12/27 10:37:55;;;;;;;0.93;0.45;;;;;;;9.14;59.69;100627.91;4297377;33;20143;-88
2022/12/27 10:40:48;;;;;;;0.82;0.50;;;;;;;9.13;59.69;100624.44;4297864;33;20507;-87
2022/12/27 10:43:40;;;;;;;1.20;0.43;;;;;;;9.08;59.68;100638.38;4321008;33;20094;-88
2022/12/27 10:46:16;;;;;;;0.28;0.28;;;;;;;8.96;59.67;100628.97;4303707;33;20441;-89
2022/12/27 10:49:05;;;;;;;0.70;0.40;;;;;;;8.93;59.67;100631.62;4308804;33;20382;-88
2022/12/27 10:51:38;;;;;;;0.57;0.35;;;;;;;8.96;59.67;100654.94;4297361;33;20184;-87
2022/12/27 10:54:23;;;;;;;0.93;0.30;;;;;;;9.15;59.69;100624.44;4296400;33;20104;-88
2022/12/27 10:56:49;;;;;;;3.08;0.60;;;;;;;9.14;59.68;100643.50;4332343;33;20063;-87
2022/12/27 10:59:22;;;;;;;0.32;0.20;;;;;;;9.09;59.68;100658.28;4298502;33;20118;-87
2022/12/27 11:02:06;;;;;;;4.05;0.35;;;;;;;9.18;59.68;100648.62;4294920;33;20841;-88
2022/12/27 11:04:32;;;;;;;0.60;0.30;;;;;;;9.26;59.70;100658.94;4306200;33;20176;-87
2022/12/27 11:07:03;;;;;;;1.05;0.30;;;;;;;9.19;59.68;100641.69;4295726;33;20111;-87
2022/12/27 11:09:33;;;;;;;0.82;0.20;;;;;;;9.27;59.70;100678.84;4332278;33;20114;-88
2022/12/27 11:12:20;;;;;;;0.73;0.40;;;;;;;9.34;59.70;100674.44;4301877;33;20166;-88
2022/12/27 11:14:53;;;;;;;0.57;0.20;;;;;;;9.41;59.70;100665.69;4321155;33;20096;-88
2022/12/27 11:17:20;;;;;;;2.08;0.30;;;;;;;9.32;59.69;100665.81;4314689;33;20104;-87
2022/12/27 11:19:45;;;;;;;0.82;0.30;;;;;;;9.28;59.70;100646.81;4317320;33;20096;-88
2022/12/27 11:22:10;;;;;;;0.80;0.40;;;;;;;9.45;59.70;100652.62;4307686;33;20107;-88
2022/12/27 11:24:36;;;;;;;2.30;0.43;;;;;;;9.47;59.70;100663.87;4297589;33;20896;-88
2022/12/27 11:27:01;;;;;;;1.08;0.47;;;;;;;9.63;59.71;100663.66;4321636;33;20087;-87
2022/12/27 11:29:27;;;;;;;2.15;0.70;;;;;;;9.48;59.70;100663.00;4309414;33;20146;-87
2022/12/27 11:31:53;;;;;;;2.28;0.77;;;;;;;9.38;59.70;100669.19;4321329;33;20170;-87
2022/12/27 11:34:35;;;;;;;1.90;0.60;;;;;;;9.58;59.72;100660.28;4297472;33;20154;-87
2022/12/27 11:37:04;;;;;;;1.77;0.50;;;;;;;9.53;59.71;100653.41;4333613;33;20099;-87
2022/12/27 11:39:39;;;;;;;1.75;0.70;;;;;;;9.65;59.72;100643.69;4297381;33;20171;-87
2022/12/27 11:42:17;;;;;;;1.15;0.40;;;;;;;9.63;59.71;100658.47;4309353;33;20120;-88
2022/12/27 11:45:02;;;;;;;0.32;0.25;;;;;;;9.59;59.72;100665.44;4298510;33;20128;-88
2022/12/27 11:47:50;;;;;;;1.58;0.50;;;;;;;9.60;59.71;100666.31;4299798;33;20162;-88
2022/12/27 11:50:41;;;;;;;3.42;0.40;;;;;;;9.79;59.71;100668.63;4298762;33;20079;-87
2022/12/27 11:53:07;;;;;;;2.08;0.80;;;;;;;9.76;59.72;100670.44;4313639;33;20139;-86
2022/12/27 11:55:36;;;;;;;0.80;0.40;;;;;;;9.60;59.71;100674.09;4321246;33;20382;-87
2022/12/27 11:58:21;;;;;;;1.55;0.50;;;;;;;9.39;59.70;100686.47;4321442;33;20099;-88
2022/12/27 12:01:02;;;;;;;0.32;0.30;;;;;;;9.09;59.68;100679.06;4322672;33;20494;-87
2022/12/27 12:03:58;;;;;;;1.95;0.50;;;;;;;9.18;59.68;100660.75;4344407;33;20476;-86
2022/12/27 12:06:42;;;;;;;1.60;0.60;;;;;;;9.25;59.69;100678.00;4323101;33;20119;-86
2022/12/27 12:09:33;;;;;;;1.42;0.45;;;;;;;8.93;59.67;100665.38;4329441;33;20099;-87
2022/12/27 12:12:05;;;;;;;1.95;0.60;;;;;;;8.89;59.67;100661.09;4300295;33;20113;-87
2022/12/27 12:14:39;;;;;;;2.03;0.75;;;;;;;8.94;59.67;100667.09;4321539;33;20158;-87
2022/12/27 12:17:46;;;;;;;0.85;0.47;;;;;;;9.03;59.68;100656.63;4333199;33;20099;-87
2022/12/27 12:20:31;;;;;;;1.95;0.50;;;;;;;8.93;59.67;100673.16;4288210;33;20147;-87
2022/12/27 12:23:18;;;;;;;0.50;0.20;;;;;;;8.97;59.68;100672.25;4280827;33;20104;-87
2022/12/27 12:26:02;;;;;;;1.37;0.80;;;;;;;8.68;59.66;100669.94;4324642;33;20751;-87
2022/12/27 12:28:49;;;;;;;1.42;0.50;;;;;;;8.52;59.66;100653.69;4323846;33;20103;-88
2022/12/27 12:31:51;;;;;;;1.92;0.50;;;;;;;8.61;59.66;100653.59;4324177;33;20095;-86
2022/12/27 12:34:45;;;;;;;1.33;0.50;;;;;;;8.31;59.64;100665.06;4308403;33;20389;-87
2022/12/27 12:37:23;;;;;;;1.65;0.73;;;;;;;8.30;59.63;100646.94;4319433;33;20151;-87
2022/12/27 12:40:36;;;;;;;0.52;0.35;;;;;;;8.31;59.64;100652.09;4340149;33;20195;-86
2022/12/27 12:43:35;;;;;;;3.30;0.47;;;;;;;8.29;59.63;100666.81;4310930;33;20113;-87
2022/12/27 12:46:00;;;;;;;1.02;0.30;;;;;;;8.23;59.64;100669.44;4312350;33;20120;-86
2022/12/27 12:48:47;;;;;;;1.12;0.50;;;;;;;8.17;59.64;100692.84;4335544;33;20194;-87
2022/12/27 12:51:34;;;;;;;0.52;0.30;;;;;;;8.14;59.62;100679.03;4327355;33;20134;-86
2022/12/27 12:54:06;;;;;;;1.95;0.65;;;;;;;8.11;59.63;100698.06;4325232;33;20126;-86
2022/12/27 12:57:05;;;;;;;1.70;0.50;;;;;;;8.16;59.63;100701.47;4315042;33;20092;-88
2022/12/27 13:00:18;;;;;;;1.80;0.60;;;;;;;8.02;59.62;100698.97;4323176;33;20508;-87
2022/12/27 13:02:56;;;;;;;0.45;0.30;;;;;;;8.28;59.63;100704.00;4326701;33;20480;-87
2022/12/27 13:05:48;;;;;;;2.05;0.35;;;;;;;8.09;59.63;100702.41;4324416;33;20126;-86
2022/12/27 13:08:21;;;;;;;1.87;0.43;;;;;;;7.98;59.62;100711.97;4334436;33;20083;-87
2022/12/27 13:10:56;;;;;;;0.93;0.62;;;;;;;8.13;59.63;100705.84;4338525;33;20432;-87
2022/12/27 13:13:28;;;;;;;2.58;0.32;;;;;;;8.04;59.63;100711.06;4333234;33;20532;-86
2022/12/27 13:16:22;;;;;;;2.45;0.57;;;;;;;8.05;59.63;100703.31;4321014;33;20790;-86
2022/12/27 13:19:09;;;;;;;0.47;0.28;;;;;;;7.79;59.62;100711.22;4338914;33;20072;-87
2022/12/27 13:21:46;;;;;;;2.08;0.30;;;;;;;7.87;59.62;100713.78;4343691;33;20171;-87
2022/12/27 13:24:22;;;;;;;0.62;0.40;;;;;;;7.87;59.62;100706.88;4335386;33;20501;-88
2022/12/27 13:26:51;;;;;;;1.17;0.57;;;;;;;7.55;59.60;100711.31;4312968;33;20061;-87
2022/12/27 13:29:38;;;;;;;1.17;0.52;;;;;;;7.67;59.60;100717.31;4307586;33;20733;-87
2022/12/27 13:32:44;;;;;;;0.70;0.28;;;;;;;7.65;59.61;100721.66;4309063;33;20115;-87
2022/12/27 13:35:40;;;;;;;4.28;0.50;;;;;;;7.84;59.62;100726.75;4315748;33;20119;-87
2022/12/27 13:38:11;;;;;;;2.33;0.50;;;;;;;7.74;59.61;100731.09;4340101;33;20095;-87